createdAt,value
2017-11-04T00:01:59.227Z,5.70
2017-11-04T00:04:26.696Z,5.70
2017-11-04T00:06:54.948Z,5.60
2017-11-04T00:09:22.440Z,5.70
2017-11-04T00:11:50.678Z,5.70
2017-11-04T00:14:18.159Z,5.70
2017-11-04T00:16:45.626Z,5.80
2017-11-04T00:19:13.875Z,5.80
2017-11-04T00:21:41.335Z,5.80
2017-11-04T00:24:08.794Z,5.80
2017-11-04T00:26:36.284Z,5.80
2017-11-04T00:29:03.747Z,5.90
2017-11-04T00:31:31.212Z,5.90
2017-11-04T00:33:58.699Z,5.90
2017-11-04T00:36:26.164Z,5.90
2017-11-04T00:38:53.639Z,5.90
2017-11-04T00:41:21.117Z,5.80
2017-11-04T00:43:49.368Z,5.80
2017-11-04T00:46:16.864Z,5.80
2017-11-04T00:48:44.328Z,5.80
2017-11-04T00:51:11.793Z,5.80
2017-11-04T00:53:39.269Z,5.90
2017-11-04T00:56:06.736Z,5.90
2017-11-04T00:58:34.205Z,5.90
2017-11-04T01:01:01.687Z,5.90
2017-11-04T01:03:29.917Z,5.90
2017-11-04T01:05:57.380Z,5.90
2017-11-04T01:08:24.864Z,6.00
2017-11-04T01:10:53.116Z,6.00
2017-11-04T01:13:20.592Z,6.00
2017-11-04T01:15:48.824Z,6.00
2017-11-04T01:18:16.303Z,6.00
2017-11-04T01:20:43.776Z,6.00
2017-11-04T01:23:11.236Z,6.00
2017-11-04T01:25:39.490Z,6.00
2017-11-04T01:28:06.970Z,6.00
2017-11-04T01:30:35.212Z,6.10
2017-11-04T01:33:02.684Z,6.00
2017-11-04T01:35:30.171Z,6.00
2017-11-04T01:37:57.639Z,6.10
2017-11-04T01:40:25.116Z,6.10
2017-11-04T01:42:52.598Z,6.10
2017-11-04T01:45:20.083Z,6.10
2017-11-04T01:47:48.322Z,6.00
2017-11-04T01:50:15.806Z,6.00
2017-11-04T01:52:43.276Z,6.10
2017-11-04T01:55:11.508Z,6.10
2017-11-04T01:57:38.992Z,6.00
2017-11-04T02:00:06.467Z,6.10
2017-11-04T02:02:34.711Z,6.10
2017-11-04T02:05:02.184Z,6.00
2017-11-04T02:07:29.663Z,6.10
2017-11-04T02:09:57.903Z,6.10
2017-11-04T02:12:25.379Z,6.10
2017-11-04T02:14:53.628Z,6.00
2017-11-04T02:17:21.086Z,6.00
2017-11-04T02:19:50.056Z,6.00
2017-11-04T02:22:17.542Z,6.00
2017-11-04T02:24:45.007Z,6.00
2017-11-04T02:27:12.502Z,6.10
2017-11-04T02:29:40.023Z,6.10
2017-11-04T02:32:08.260Z,6.10
2017-11-04T02:34:35.718Z,6.10
2017-11-04T02:37:03.203Z,6.10
2017-11-04T02:39:30.668Z,6.00
2017-11-04T02:41:58.911Z,5.90
2017-11-04T02:44:26.452Z,5.90
2017-11-04T02:46:53.912Z,5.90
2017-11-04T02:49:21.403Z,5.90
2017-11-04T02:51:48.882Z,5.90
2017-11-04T02:54:17.116Z,6.00
2017-11-04T02:56:44.571Z,5.90
2017-11-04T02:59:12.065Z,5.90
2017-11-04T03:01:40.311Z,6.00
2017-11-04T03:04:07.836Z,6.00
2017-11-04T03:06:35.307Z,5.90
2017-11-04T03:09:02.782Z,5.90
2017-11-04T03:11:30.307Z,5.90
2017-11-04T03:13:57.760Z,5.90
2017-11-04T03:16:25.237Z,5.90
2017-11-04T03:18:52.711Z,5.90
2017-11-04T03:21:20.176Z,6.00
2017-11-04T03:23:47.644Z,5.90
2017-11-04T03:26:15.124Z,5.90
2017-11-04T03:28:42.587Z,5.90
2017-11-04T03:31:10.050Z,5.90
2017-11-04T03:33:37.531Z,5.90
2017-11-04T03:36:05.003Z,5.90
2017-11-04T03:38:32.508Z,5.90
2017-11-04T03:40:59.966Z,5.90
2017-11-04T03:43:27.447Z,5.90
2017-11-04T03:45:54.903Z,5.90
2017-11-04T03:48:22.392Z,5.90
2017-11-04T03:50:49.851Z,5.90
2017-11-04T03:53:17.310Z,5.90
2017-11-04T03:55:44.795Z,5.90
2017-11-04T03:58:13.031Z,5.90
2017-11-04T04:00:40.503Z,5.90
2017-11-04T04:03:07.987Z,6.00
2017-11-04T04:05:36.221Z,6.00
2017-11-04T04:08:03.767Z,6.00
2017-11-04T04:10:31.241Z,6.10
2017-11-04T04:12:58.716Z,6.10
2017-11-04T04:15:26.952Z,6.00
2017-11-04T04:17:54.411Z,6.00
2017-11-04T04:20:21.891Z,6.00
2017-11-04T04:22:49.362Z,6.00
2017-11-04T04:25:17.612Z,6.00
2017-11-04T04:27:45.071Z,6.00
2017-11-04T04:30:12.551Z,6.00
2017-11-04T04:32:40.781Z,6.00
2017-11-04T04:35:08.263Z,5.90
2017-11-04T04:37:35.742Z,6.00
2017-11-04T04:40:03.202Z,6.00
2017-11-04T04:42:31.440Z,6.10
2017-11-04T04:44:58.900Z,6.00
2017-11-04T04:47:26.383Z,6.10
2017-11-04T04:49:54.608Z,6.10
2017-11-04T04:52:22.091Z,6.10
2017-11-04T04:54:49.565Z,6.20
2017-11-04T04:57:17.053Z,6.20
2017-11-04T04:59:44.532Z,6.20
2017-11-04T05:02:11.997Z,6.20
2017-11-04T05:04:39.479Z,6.30
2017-11-04T05:07:06.956Z,6.30
2017-11-04T05:09:35.190Z,6.30
2017-11-04T05:12:02.663Z,6.30
2017-11-04T05:14:30.131Z,6.40
2017-11-04T05:16:57.593Z,6.50
2017-11-04T05:19:25.839Z,6.50
2017-11-04T05:21:53.304Z,6.50
2017-11-04T05:24:20.786Z,6.50
2017-11-04T05:26:49.019Z,6.60
2017-11-04T05:29:16.500Z,6.50
2017-11-04T05:31:43.966Z,6.50
2017-11-04T05:34:12.194Z,6.60
2017-11-04T05:36:39.684Z,6.60
2017-11-04T05:39:07.143Z,6.60
2017-11-04T05:41:34.643Z,6.60
2017-11-04T05:44:02.126Z,6.70
2017-11-04T05:46:29.587Z,6.60
2017-11-04T05:48:57.987Z,6.60
2017-11-04T05:51:25.462Z,6.60
2017-11-04T05:53:52.948Z,6.60
2017-11-04T05:56:20.411Z,6.60
2017-11-04T05:58:47.872Z,6.60
2017-11-04T06:01:15.355Z,6.50
2017-11-04T06:03:42.819Z,6.50
2017-11-04T06:06:11.812Z,6.60
2017-11-04T06:08:39.291Z,6.60
2017-11-04T06:11:07.522Z,6.60
2017-11-04T06:13:35.008Z,6.60
2017-11-04T06:16:02.474Z,6.70
2017-11-04T06:18:29.935Z,6.70
2017-11-04T06:20:57.416Z,6.80
2017-11-04T06:23:25.323Z,6.80
2017-11-04T06:25:53.575Z,6.80
2017-11-04T06:28:21.044Z,6.80
2017-11-04T06:30:50.278Z,6.80
2017-11-04T06:33:17.756Z,6.80
2017-11-04T06:35:45.223Z,6.80
2017-11-04T06:38:13.455Z,6.90
2017-11-04T06:40:41.714Z,7.00
2017-11-04T06:43:09.180Z,6.90
2017-11-04T06:45:36.645Z,7.00
2017-11-04T06:48:04.137Z,7.00
2017-11-04T06:50:32.372Z,7.00
2017-11-04T06:52:59.876Z,7.00
2017-11-04T06:55:28.097Z,7.00
2017-11-04T06:57:55.572Z,7.00
2017-11-04T07:00:23.064Z,7.00
2017-11-04T07:02:51.292Z,7.00
2017-11-04T07:05:18.850Z,6.90
2017-11-04T07:07:46.326Z,6.90
2017-11-04T07:10:13.811Z,7.00
2017-11-04T07:12:41.300Z,7.00
2017-11-04T07:15:08.759Z,7.00
2017-11-04T07:17:36.255Z,7.00
2017-11-04T07:20:03.738Z,7.10
2017-11-04T07:22:31.203Z,7.20
2017-11-04T07:24:58.695Z,7.40
2017-11-04T07:27:26.143Z,7.60
2017-11-04T07:29:53.628Z,7.90
2017-11-04T07:32:21.089Z,8.00
2017-11-04T07:34:48.567Z,8.10
2017-11-04T07:37:16.791Z,8.00
2017-11-04T07:39:44.273Z,8.00
2017-11-04T07:42:11.748Z,8.00
2017-11-04T07:44:39.980Z,8.10
2017-11-04T07:47:07.479Z,8.10
2017-11-04T07:49:35.719Z,7.90
2017-11-04T07:52:03.224Z,7.90
2017-11-04T07:54:31.455Z,7.90
2017-11-04T07:56:58.952Z,7.90
2017-11-04T07:59:27.179Z,7.90
2017-11-04T08:01:54.654Z,7.90
2017-11-04T08:04:22.136Z,7.80
2017-11-04T08:06:50.385Z,7.80
2017-11-04T08:09:17.884Z,7.80
2017-11-04T08:11:45.344Z,8.10
2017-11-04T08:14:12.836Z,8.70
2017-11-04T08:16:40.319Z,8.90
2017-11-04T08:19:07.799Z,8.90
2017-11-04T08:21:36.044Z,8.90
2017-11-04T08:24:03.503Z,8.90
2017-11-04T08:26:30.959Z,9.10
2017-11-04T08:28:58.451Z,9.20
2017-11-04T08:31:26.676Z,9.40
2017-11-04T08:33:54.147Z,9.40
2017-11-04T08:36:21.616Z,9.50
2017-11-04T08:38:49.101Z,9.50
2017-11-04T08:41:16.607Z,9.50
2017-11-04T08:43:44.063Z,9.50
2017-11-04T08:46:11.530Z,9.40
2017-11-04T08:48:39.027Z,9.60
2017-11-04T08:51:06.625Z,9.60
2017-11-04T08:53:34.083Z,9.80
2017-11-04T08:56:01.559Z,9.90
2017-11-04T08:58:29.791Z,10.10
2017-11-04T09:00:57.275Z,10.00
2017-11-04T09:03:24.791Z,10.10
2017-11-04T09:05:52.275Z,10.20
2017-11-04T09:08:19.764Z,10.20
2017-11-04T09:10:47.244Z,10.40
2017-11-04T09:13:15.471Z,10.80
2017-11-04T09:15:42.961Z,10.80
2017-11-04T09:18:10.423Z,10.80
2017-11-04T09:20:37.915Z,10.80
2017-11-04T09:23:06.286Z,10.90
2017-11-04T09:25:33.791Z,11.20
2017-11-04T09:28:01.267Z,11.10
2017-11-04T09:30:30.226Z,11.40
2017-11-04T09:32:57.719Z,11.30
2017-11-04T09:35:25.189Z,11.70
2017-11-04T09:37:53.432Z,12.70
2017-11-04T09:40:20.914Z,12.60
2017-11-04T09:42:49.155Z,14.50
2017-11-04T09:45:16.632Z,14.40
2017-11-04T09:47:45.625Z,14.60
2017-11-04T09:50:13.108Z,14.60
2017-11-04T09:52:41.348Z,15.00
2017-11-04T09:55:08.823Z,15.00
2017-11-04T09:57:37.084Z,15.10
2017-11-04T10:00:06.066Z,14.70
2017-11-04T10:02:33.564Z,14.80
2017-11-04T10:05:01.862Z,15.50
2017-11-04T10:07:29.328Z,15.50
2017-11-04T10:09:56.803Z,15.80
2017-11-04T10:12:24.271Z,15.70
2017-11-04T10:14:51.763Z,16.50
2017-11-04T10:17:19.991Z,16.20
2017-11-04T10:19:47.473Z,16.20
2017-11-04T10:22:14.938Z,16.20
2017-11-04T10:24:43.193Z,16.40
2017-11-04T10:27:10.669Z,16.40
2017-11-04T10:29:38.997Z,16.30
2017-11-04T10:32:06.483Z,16.30
2017-11-04T10:34:33.946Z,16.10
2017-11-04T10:37:01.407Z,15.00
2017-11-04T10:39:28.880Z,13.90
2017-11-04T10:41:57.122Z,13.50
2017-11-04T10:44:24.608Z,13.50
2017-11-04T10:46:52.858Z,14.40
2017-11-04T10:49:20.329Z,14.40
2017-11-04T10:51:47.814Z,15.30
2017-11-04T10:54:16.032Z,16.60
2017-11-04T10:56:43.544Z,16.60
2017-11-04T10:59:11.788Z,16.40
2017-11-04T11:01:39.249Z,16.40
2017-11-04T11:04:06.754Z,16.20
2017-11-04T11:06:34.211Z,15.90
2017-11-04T11:09:01.704Z,15.70
2017-11-04T11:11:29.195Z,15.60
2017-11-04T11:13:57.449Z,15.50
2017-11-04T11:16:24.932Z,15.50
2017-11-04T11:18:53.160Z,15.60
2017-11-04T11:21:20.643Z,15.60
2017-11-04T11:23:48.884Z,15.80
2017-11-04T11:26:16.367Z,15.80
2017-11-04T11:28:43.851Z,16.00
2017-11-04T11:31:11.324Z,16.30
2017-11-04T11:33:38.792Z,16.00
2017-11-04T11:36:06.292Z,16.20
2017-11-04T11:38:33.771Z,16.40
2017-11-04T11:41:01.999Z,15.90
2017-11-04T11:43:29.490Z,15.90
2017-11-04T11:45:57.754Z,16.30
2017-11-04T11:48:25.241Z,16.30
2017-11-04T11:50:52.740Z,16.40
2017-11-04T11:53:20.204Z,16.40
2017-11-04T11:55:47.666Z,16.40
2017-11-04T11:58:15.155Z,16.50
2017-11-04T12:00:43.390Z,16.50
2017-11-04T12:03:10.861Z,16.50
2017-11-04T12:05:38.340Z,16.30
2017-11-04T12:08:06.580Z,15.80
2017-11-04T12:10:34.066Z,15.80
2017-11-04T12:13:01.540Z,16.00
2017-11-04T12:15:29.766Z,16.10
2017-11-04T12:17:57.256Z,16.10
2017-11-04T12:20:25.506Z,16.00
2017-11-04T12:22:52.977Z,16.00
2017-11-04T12:25:20.471Z,16.00
2017-11-04T12:27:47.941Z,15.90
2017-11-04T12:30:15.435Z,16.10
2017-11-04T12:32:42.915Z,16.00
2017-11-04T12:35:11.152Z,16.10
2017-11-04T12:37:38.645Z,16.10
2017-11-04T12:40:06.143Z,15.90
2017-11-04T12:42:33.639Z,15.90
2017-11-04T12:45:01.100Z,15.60
2017-11-04T12:47:28.568Z,15.70
2017-11-04T12:49:56.058Z,15.70
2017-11-04T12:52:23.531Z,15.70
2017-11-04T12:54:51.017Z,15.70
2017-11-04T12:57:18.486Z,15.80
2017-11-04T12:59:46.004Z,15.90
2017-11-04T13:02:13.495Z,15.80
2017-11-04T13:04:40.968Z,15.90
2017-11-04T13:07:08.434Z,15.80
2017-11-04T13:09:36.680Z,15.20
2017-11-04T13:12:04.160Z,15.20
2017-11-04T13:14:32.419Z,14.60
2017-11-04T13:16:59.883Z,14.60
2017-11-04T13:19:28.868Z,15.00
2017-11-04T13:21:56.352Z,15.10
2017-11-04T13:24:24.591Z,15.60
2017-11-04T13:26:52.080Z,15.60
2017-11-04T13:29:20.331Z,15.80
2017-11-04T13:31:47.817Z,15.80
2017-11-04T13:34:16.084Z,15.90
2017-11-04T13:36:44.318Z,15.90
2017-11-04T13:39:11.810Z,15.90
2017-11-04T13:41:40.067Z,15.70
2017-11-04T13:44:07.567Z,15.70
2017-11-04T13:46:35.034Z,15.70
2017-11-04T13:49:02.520Z,15.60
2017-11-04T13:51:30.005Z,15.50
2017-11-04T13:53:57.462Z,15.50
2017-11-04T13:56:24.944Z,15.40
2017-11-04T13:58:53.201Z,15.30
2017-11-04T14:01:20.659Z,15.30
2017-11-04T14:03:48.896Z,15.40
2017-11-04T14:06:16.402Z,15.30
2017-11-04T14:08:44.623Z,15.50
2017-11-04T14:11:12.125Z,15.50
2017-11-04T14:13:40.371Z,15.60
2017-11-04T14:16:07.844Z,15.60
2017-11-04T14:18:35.332Z,15.80
2017-11-04T14:21:02.800Z,15.90
2017-11-04T14:23:30.275Z,15.80
2017-11-04T14:25:57.743Z,15.80
2017-11-04T14:28:25.204Z,15.90
2017-11-04T14:30:52.688Z,15.90
2017-11-04T14:33:20.921Z,16.00
2017-11-04T14:35:48.399Z,15.90
2017-11-04T14:38:15.874Z,15.90
2017-11-04T14:40:43.323Z,15.90
2017-11-04T14:43:10.795Z,15.90
2017-11-04T14:45:39.042Z,15.80
2017-11-04T14:48:06.523Z,15.80
2017-11-04T14:50:34.773Z,15.60
2017-11-04T14:53:02.251Z,15.60
2017-11-04T14:55:29.714Z,15.50
2017-11-04T14:57:57.962Z,15.20
2017-11-04T15:00:25.428Z,15.20
2017-11-04T15:02:52.898Z,15.20
2017-11-04T15:05:21.167Z,15.10
2017-11-04T15:07:48.636Z,15.10
2017-11-04T15:10:16.898Z,15.20
2017-11-04T15:12:44.365Z,15.10
2017-11-04T15:15:12.619Z,15.30
2017-11-04T15:17:40.083Z,15.30
2017-11-04T15:20:07.822Z,15.30
2017-11-04T15:22:35.294Z,15.30
2017-11-04T15:25:02.771Z,15.40
2017-11-04T15:27:31.000Z,15.30
2017-11-04T15:29:58.489Z,15.30
2017-11-04T15:32:25.944Z,15.30
2017-11-04T15:34:53.424Z,15.30
2017-11-04T15:37:21.664Z,15.40
2017-11-04T15:39:49.140Z,15.30
2017-11-04T15:42:16.636Z,15.40
2017-11-04T15:44:44.094Z,15.30
2017-11-04T15:47:11.567Z,15.30
2017-11-04T15:49:39.070Z,15.30
2017-11-04T15:52:06.519Z,15.30
2017-11-04T15:54:34.775Z,15.30
2017-11-04T15:57:02.236Z,15.30
2017-11-04T15:59:29.702Z,15.20
2017-11-04T16:01:57.183Z,15.20
2017-11-04T16:04:25.422Z,15.20
2017-11-04T16:06:52.893Z,15.10
2017-11-04T16:09:21.156Z,15.10
2017-11-04T16:11:48.611Z,15.10
2017-11-04T16:14:16.105Z,15.00
2017-11-04T16:16:44.324Z,15.00
2017-11-04T16:19:11.782Z,15.00
2017-11-04T16:21:39.251Z,15.00
2017-11-04T16:24:06.723Z,14.90
2017-11-04T16:26:34.187Z,14.90
2017-11-04T16:29:02.439Z,14.80
2017-11-04T16:31:29.907Z,14.80
2017-11-04T16:33:57.408Z,14.90
2017-11-04T16:36:24.872Z,14.90
2017-11-04T16:38:52.360Z,15.00
2017-11-04T16:41:19.857Z,14.90
2017-11-04T16:43:48.091Z,15.00
2017-11-04T16:46:15.546Z,15.00
2017-11-04T16:48:43.024Z,15.00
2017-11-04T16:51:10.503Z,15.00
2017-11-04T16:53:38.781Z,14.80
2017-11-04T16:56:07.026Z,14.70
2017-11-04T16:58:34.495Z,14.70
2017-11-04T17:01:01.963Z,14.70
2017-11-04T17:03:30.200Z,14.80
2017-11-04T17:05:57.697Z,14.80
2017-11-04T17:08:25.920Z,14.90
2017-11-04T17:10:53.388Z,14.80
2017-11-04T17:13:20.866Z,14.90
2017-11-04T17:15:48.324Z,14.90
2017-11-04T17:18:17.298Z,14.80
2017-11-04T17:20:44.791Z,14.80
2017-11-04T17:23:13.020Z,14.80
2017-11-04T17:25:40.504Z,14.80
2017-11-04T17:28:07.999Z,14.80
2017-11-04T17:30:35.483Z,14.80
2017-11-04T17:33:03.005Z,14.80
2017-11-04T17:35:30.459Z,14.80
2017-11-04T17:37:57.936Z,14.70
2017-11-04T17:40:25.420Z,14.70
2017-11-04T17:42:52.889Z,14.60
2017-11-04T17:45:20.398Z,14.60
2017-11-04T17:47:47.857Z,14.60
2017-11-04T17:50:15.331Z,14.50
2017-11-04T17:52:42.818Z,14.50
2017-11-04T17:55:10.314Z,14.50
2017-11-04T17:57:37.811Z,14.40
2017-11-04T18:00:05.271Z,14.40
2017-11-04T18:02:32.735Z,14.30
2017-11-04T18:05:00.230Z,14.20
2017-11-04T18:07:28.477Z,13.80
2017-11-04T18:09:55.995Z,13.70
2017-11-04T18:12:23.472Z,13.70
2017-11-04T18:14:51.023Z,13.70
2017-11-04T18:17:18.568Z,13.70
2017-11-04T18:19:46.029Z,13.80
2017-11-04T18:22:13.529Z,13.90
2017-11-04T18:24:41.003Z,13.90
2017-11-04T18:27:09.369Z,14.00
2017-11-04T18:29:36.873Z,14.00
2017-11-04T18:32:04.355Z,14.10
2017-11-04T18:34:31.857Z,14.10
2017-11-04T18:37:00.096Z,14.30
2017-11-04T18:39:27.670Z,14.30
2017-11-04T18:41:55.187Z,14.30
2017-11-04T18:44:22.678Z,14.40
2017-11-04T18:46:50.175Z,14.40
2017-11-04T18:49:17.663Z,14.20
2017-11-04T18:51:45.140Z,14.00
2017-11-04T18:54:12.615Z,14.00
2017-11-04T18:56:40.116Z,14.00
2017-11-04T18:59:07.599Z,14.00
2017-11-04T19:01:35.097Z,14.00
2017-11-04T19:04:03.412Z,14.10
2017-11-04T19:06:30.886Z,14.10
2017-11-04T19:08:58.365Z,14.10
2017-11-04T19:11:25.985Z,14.20
2017-11-04T19:13:53.483Z,14.20
2017-11-04T19:16:20.994Z,14.20
2017-11-04T19:18:48.461Z,14.20
2017-11-04T19:21:15.983Z,14.20
2017-11-04T19:23:44.220Z,14.20
2017-11-04T19:26:11.713Z,14.10
2017-11-04T19:28:40.043Z,14.10
2017-11-04T19:31:07.524Z,14.00
2017-11-04T19:33:35.019Z,14.00
2017-11-04T19:36:02.576Z,14.10
2017-11-04T19:38:30.795Z,14.00
2017-11-04T19:40:58.286Z,14.00
2017-11-04T19:43:26.687Z,14.10
2017-11-04T19:45:54.172Z,14.10
2017-11-04T19:48:22.462Z,14.00
2017-11-04T19:50:49.940Z,14.10
2017-11-04T19:53:17.426Z,14.10
2017-11-04T19:55:44.904Z,14.10
2017-11-04T19:58:12.385Z,14.10
2017-11-04T20:00:39.923Z,14.10
2017-11-04T20:03:07.404Z,14.10
2017-11-04T20:05:34.888Z,14.10
2017-11-04T20:08:03.164Z,14.10
2017-11-04T20:10:30.615Z,14.00
2017-11-04T20:12:58.083Z,14.00
2017-11-04T20:15:26.452Z,14.10
2017-11-04T20:17:54.712Z,14.10
2017-11-04T20:20:22.196Z,14.10
2017-11-04T20:22:50.440Z,14.10
2017-11-04T20:25:17.924Z,14.10
2017-11-04T20:27:46.170Z,14.00
2017-11-04T20:30:13.631Z,14.00
2017-11-04T20:32:41.137Z,13.90
2017-11-04T20:35:08.708Z,13.80
2017-11-04T20:37:36.167Z,13.70
2017-11-04T20:40:03.657Z,13.60
2017-11-04T20:42:31.131Z,13.70
2017-11-04T20:44:58.590Z,13.60
2017-11-04T20:47:26.083Z,13.50
2017-11-04T20:49:53.555Z,13.50
2017-11-04T20:52:21.108Z,13.60
2017-11-04T20:54:48.591Z,13.60
2017-11-04T20:57:16.185Z,13.70
2017-11-04T20:59:44.443Z,13.80
2017-11-04T21:02:11.944Z,13.80
2017-11-04T21:04:39.513Z,13.80
2017-11-04T21:07:06.971Z,13.90
2017-11-04T21:09:34.479Z,13.90
2017-11-04T21:12:01.966Z,13.90
2017-11-04T21:14:29.454Z,14.00
2017-11-04T21:16:57.001Z,14.00
2017-11-04T21:19:24.479Z,13.90
2017-11-04T21:21:51.976Z,14.00
2017-11-04T21:24:20.211Z,14.00
2017-11-04T21:26:47.689Z,14.00
2017-11-04T21:29:15.510Z,14.00
2017-11-04T21:31:42.972Z,13.90
2017-11-04T21:34:10.462Z,13.80
2017-11-04T21:36:37.942Z,13.80
2017-11-04T21:39:05.419Z,13.80
2017-11-04T21:41:32.899Z,13.80
2017-11-04T21:44:00.381Z,13.80
2017-11-04T21:46:27.976Z,13.70
2017-11-04T21:48:56.207Z,13.70
2017-11-04T21:51:23.699Z,13.70
2017-11-04T21:53:51.939Z,13.70
2017-11-04T21:56:19.439Z,13.70
2017-11-04T21:58:47.671Z,13.60
2017-11-04T22:01:15.196Z,13.60
2017-11-04T22:03:42.671Z,13.60
2017-11-04T22:06:10.131Z,13.70
2017-11-04T22:08:37.620Z,13.70
2017-11-04T22:11:05.129Z,13.70
2017-11-04T22:13:32.610Z,13.70
2017-11-04T22:16:00.113Z,13.80
2017-11-04T22:18:28.358Z,13.70
2017-11-04T22:20:55.850Z,13.70
2017-11-04T22:23:24.089Z,13.70
2017-11-04T22:25:51.717Z,13.70
2017-11-04T22:28:19.201Z,13.70
2017-11-04T22:30:46.666Z,13.60
2017-11-04T22:33:14.161Z,13.60
2017-11-04T22:35:42.407Z,13.70
2017-11-04T22:38:09.937Z,13.70
2017-11-04T22:40:37.385Z,13.70
2017-11-04T22:43:05.450Z,13.70
2017-11-04T22:45:32.935Z,13.70
2017-11-04T22:48:00.435Z,13.70
2017-11-04T22:50:28.688Z,13.70
2017-11-04T22:52:56.923Z,13.60
2017-11-04T22:55:24.408Z,13.60
2017-11-04T22:57:51.868Z,13.60
2017-11-04T23:00:19.372Z,13.60
2017-11-04T23:02:46.844Z,13.60
2017-11-04T23:05:14.331Z,13.60
2017-11-04T23:07:41.816Z,13.50
2017-11-04T23:10:10.046Z,13.30
2017-11-04T23:12:37.528Z,13.30
2017-11-04T23:15:05.007Z,13.20
2017-11-04T23:17:33.265Z,12.90
2017-11-04T23:20:00.759Z,12.90
2017-11-04T23:22:28.341Z,12.80
2017-11-04T23:24:55.828Z,12.70
2017-11-04T23:27:23.331Z,12.60
2017-11-04T23:29:50.812Z,12.60
2017-11-04T23:32:18.288Z,12.50
2017-11-04T23:34:45.812Z,12.40
2017-11-04T23:37:13.272Z,12.40
2017-11-04T23:39:40.891Z,12.40
2017-11-04T23:42:09.137Z,12.30
2017-11-04T23:44:36.607Z,12.20
2017-11-04T23:47:04.169Z,12.20
2017-11-04T23:49:31.631Z,12.30
2017-11-04T23:51:59.111Z,12.20
2017-11-04T23:54:26.586Z,12.20
2017-11-04T23:56:54.055Z,12.20
2017-11-04T23:59:21.535Z,12.20
